Time;durP1;ratioP1;P1;durP2;ratioP2;P2;SDS_P1;SDS_P2;PMS_P1;PMS_P2;Temp;Humidity;BMP_temperature;BMP_pressure;BME280_temperature;BME280_humidity;BME280_pressure;Samples;Min_cycle;Max_cycle;Signal;HPM_P1;HPM_P2
2023/01/07 00:01:17;;;;;;;5.00;1.30;;;10.70;1.00;;;;;;5069764;28;20371;-53
2023/01/07 00:03:43;;;;;;;5.40;1.40;;;10.70;1.00;;;;;;5061232;28;20402;-53
2023/01/07 00:06:23;;;;;;;5.32;1.60;;;10.80;1.00;;;;;;5057933;28;20416;-53
2023/01/07 00:08:51;;;;;;;5.55;1.50;;;10.80;1.00;;;;;;5051049;28;20436;-52
2023/01/07 00:11:24;;;;;;;5.55;1.60;;;10.90;1.00;;;;;;5049499;28;20712;-53
2023/01/07 00:13:51;;;;;;;6.13;1.40;;;10.90;1.00;;;;;;5050295;28;20385;-53
2023/01/07 00:16:19;;;;;;;5.38;1.60;;;10.90;1.00;;;;;;5049314;28;20397;-53
2023/01/07 00:18:45;;;;;;;4.60;1.05;;;11.00;1.00;;;;;;5048581;28;20400;-55
2023/01/07 00:21:14;;;;;;;5.85;1.40;;;10.90;1.00;;;;;;5060945;28;20868;-53
2023/01/07 00:23:41;;;;;;;4.80;1.25;;;10.90;1.00;;;;;;5050004;28;20914;-53
2023/01/07 00:26:15;;;;;;;6.15;1.38;;;10.90;1.00;;;;;;5050115;28;20412;-53
2023/01/07 00:28:43;;;;;;;6.30;1.70;;;11.00;1.00;;;;;;5049719;28;20882;-53
2023/01/07 00:31:15;;;;;;;4.80;1.10;;;10.90;1.00;;;;;;5049743;28;20381;-53
2023/01/07 00:33:50;;;;;;;4.90;1.20;;;10.90;1.00;;;;;;5049993;28;20381;-54
2023/01/07 00:36:16;;;;;;;7.03;1.50;;;10.90;1.00;;;;;;5063293;28;20412;-53
2023/01/07 00:38:42;;;;;;;5.80;1.70;;;11.00;1.00;;;;;;5052478;28;20383;-53
2023/01/07 00:41:08;;;;;;;5.00;1.20;;;11.00;1.00;;;;;;5069890;28;20714;-54
2023/01/07 00:43:34;;;;;;;5.47;1.50;;;11.10;99.90;;;;;;5069142;28;20501;-54
2023/01/07 00:45:59;;;;;;;5.28;1.55;;;11.10;99.90;;;;;;5069973;28;20846;-53
2023/01/07 00:48:25;;;;;;;4.60;1.00;;;11.10;99.90;;;;;;5068955;28;20407;-53
2023/01/07 00:50:52;;;;;;;6.15;1.40;;;11.10;99.90;;;;;;5066074;28;20403;-53
2023/01/07 00:53:18;;;;;;;5.50;1.50;;;11.10;99.90;;;;;;5066437;28;20383;-53
2023/01/07 00:55:44;;;;;;;5.60;1.90;;;11.00;99.90;;;;;;5070365;28;20392;-53
2023/01/07 00:58:27;;;;;;;6.45;1.63;;;10.90;99.90;;;;;;5069636;28;20384;-53
2023/01/07 01:00:55;;;;;;;7.70;2.45;;;10.80;1.00;;;;;;5065335;28;20411;-54
2023/01/07 01:03:20;;;;;;;5.75;2.00;;;10.90;1.00;;;;;;5059801;28;20372;-53
2023/01/07 01:05:46;;;;;;;5.40;1.60;;;10.80;1.00;;;;;;5069739;28;20396;-53
2023/01/07 01:08:12;;;;;;;5.70;2.00;;;10.70;1.00;;;;;;5069561;28;20403;-53
2023/01/07 01:10:37;;;;;;;6.13;2.03;;;10.70;1.00;;;;;;5068756;28;20394;-53
2023/01/07 01:13:03;;;;;;;5.80;2.00;;;10.70;1.00;;;;;;5069141;28;20857;-53
2023/01/07 01:15:29;;;;;;;5.90;1.80;;;10.70;1.00;;;;;;5065907;28;20882;-53
2023/01/07 01:17:54;;;;;;;5.40;1.77;;;10.70;1.00;;;;;;5059536;28;20481;-53
2023/01/07 01:20:21;;;;;;;6.28;2.30;;;10.70;1.00;;;;;;5068288;28;20457;-53
2023/01/07 01:22:46;;;;;;;6.13;2.10;;;10.70;1.00;;;;;;5065279;28;20396;-54
2023/01/07 01:25:12;;;;;;;6.50;2.10;;;10.70;1.00;;;;;;5067015;28;20432;-53
2023/01/07 01:27:38;;;;;;;5.50;1.90;;;10.60;1.00;;;;;;5069097;28;20407;-53
2023/01/07 01:30:05;;;;;;;5.53;1.80;;;10.60;1.00;;;;;;5074543;28;20378;-54
2023/01/07 01:32:31;;;;;;;5.57;1.80;;;10.60;1.00;;;;;;5085542;28;20417;-53
2023/01/07 01:34:57;;;;;;;6.32;1.98;;;10.70;1.00;;;;;;5092735;28;20443;-54
2023/01/07 01:37:23;;;;;;;6.45;2.05;;;10.80;1.00;;;;;;5076865;28;20818;-56
2023/01/07 01:39:48;;;;;;;5.90;2.00;;;10.80;1.00;;;;;;5088326;28;20399;-53
2023/01/07 01:42:21;;;;;;;6.45;2.17;;;10.70;1.00;;;;;;5070073;28;20848;-53
2023/01/07 01:44:58;;;;;;;6.47;2.10;;;10.70;1.00;;;;;;5075164;28;20383;-53
2023/01/07 01:47:43;;;;;;;5.63;2.00;;;10.60;1.00;;;;;;5067489;28;20411;-53
2023/01/07 01:50:33;;;;;;;8.05;2.30;;;10.50;1.00;;;;;;5065437;28;20398;-53
2023/01/07 01:53:02;;;;;;;6.10;2.10;;;10.50;1.00;;;;;;5073279;28;20814;-53
2023/01/07 01:55:40;;;;;;;5.70;1.77;;;10.60;1.00;;;;;;5072528;28;20429;-53
2023/01/07 01:58:10;;;;;;;5.13;1.70;;;10.60;1.00;;;;;;5072960;28;20379;-53
2023/01/07 02:00:36;;;;;;;6.53;2.30;;;10.50;1.00;;;;;;5072526;28;20416;-53
2023/01/07 02:03:06;;;;;;;6.28;2.20;;;11.30;1.00;;;;;;5072387;28;20412;-53
2023/01/07 02:05:35;;;;;;;5.35;1.73;;;10.70;1.00;;;;;;5072161;28;20382;-53
2023/01/07 02:08:01;;;;;;;5.65;1.60;;;10.70;1.00;;;;;;5072382;28;20942;-53
2023/01/07 02:10:27;;;;;;;5.97;1.73;;;10.70;1.00;;;;;;5071849;28;20384;-53
2023/01/07 02:13:16;;;;;;;5.80;2.00;;;10.50;1.00;;;;;;5072805;28;20379;-53
2023/01/07 02:16:02;;;;;;;6.13;2.10;;;10.50;1.00;;;;;;5072438;28;20388;-54
2023/01/07 02:18:49;;;;;;;5.97;2.00;;;10.50;1.00;;;;;;5072591;28;20384;-53
2023/01/07 02:21:39;;;;;;;5.85;1.85;;;10.50;1.00;;;;;;5072347;28;20384;-57
2023/01/07 02:24:38;;;;;;;5.50;1.90;;;10.60;1.00;;;;;;5072321;28;20375;-53
2023/01/07 02:27:15;;;;;;;5.72;1.70;;;10.70;1.00;;;;;;5072267;28;20410;-53
2023/01/07 02:30:03;;;;;;;8.27;1.73;;;10.60;1.00;;;;;;5072413;28;20468;-53
2023/01/07 02:32:53;;;;;;;5.10;1.30;;;10.70;1.00;;;;;;5071687;28;20916;-53
2023/01/07 02:35:41;;;;;;;5.60;1.70;;;10.70;1.00;;;;;;5068295;28;20902;-54
2023/01/07 02:38:45;;;;;;;5.50;1.50;;;10.70;1.00;;;;;;5061388;28;20400;-53
2023/01/07 02:41:33;;;;;;;5.90;1.73;;;10.70;1.00;;;;;;5052346;28;20386;-53
2023/01/07 02:44:02;;;;;;;5.03;1.50;;;10.60;1.00;;;;;;5051773;28;20390;-53
2023/01/07 02:46:46;;;;;;;5.60;1.60;;;10.70;1.00;;;;;;5051065;28;20736;-53
2023/01/07 02:49:15;;;;;;;5.65;1.70;;;10.70;1.00;;;;;;5052058;28;20385;-53
2023/01/07 02:51:42;;;;;;;5.30;1.80;;;10.60;1.00;;;;;;5050994;28;20977;-53
2023/01/07 02:54:15;;;;;;;5.00;1.40;;;10.50;1.00;;;;;;5052145;28;20385;-53
2023/01/07 02:56:40;;;;;;;5.30;1.65;;;10.50;1.00;;;;;;5051732;28;20432;-53
2023/01/07 02:59:35;;;;;;;5.30;1.40;;;10.50;1.00;;;;;;5051501;28;20401;-53
2023/01/07 03:02:28;;;;;;;5.75;1.60;;;10.40;1.00;;;;;;5051813;28;20374;-53
2023/01/07 03:05:11;;;;;;;5.88;1.50;;;10.40;1.00;;;;;;5051682;28;20429;-53
2023/01/07 03:08:14;;;;;;;5.50;1.80;;;10.50;1.00;;;;;;5050593;28;20405;-53
2023/01/07 03:10:59;;;;;;;5.30;1.60;;;10.50;1.00;;;;;;5050200;28;20421;-53
2023/01/07 03:13:33;;;;;;;5.35;1.60;;;10.60;1.00;;;;;;5050648;28;20394;-54
2023/01/07 03:16:34;;;;;;;6.47;1.90;;;10.60;1.00;;;;;;5051607;28;20386;-54
2023/01/07 03:19:05;;;;;;;6.40;1.70;;;10.70;1.00;;;;;;5006848;28;20410;-53
2023/01/07 03:21:34;;;;;;;5.25;1.30;;;10.70;1.00;;;;;;5051343;28;20401;-53
2023/01/07 03:24:01;;;;;;;5.50;1.30;;;10.60;1.00;;;;;;5051196;28;20380;-53
2023/01/07 03:26:31;;;;;;;5.00;1.00;;;10.50;1.00;;;;;;5050734;28;20492;-54
2023/01/07 03:29:00;;;;;;;4.72;1.02;;;10.60;1.00;;;;;;5051377;28;20515;-54
2023/01/07 03:31:27;;;;;;;5.10;1.10;;;10.50;1.00;;;;;;5050971;28;20386;-53
2023/01/07 03:34:06;;;;;;;4.60;1.20;;;10.60;1.00;;;;;;5051061;28;20384;-53
2023/01/07 03:36:36;;;;;;;4.30;0.90;;;10.60;1.00;;;;;;5061596;28;20420;-53
2023/01/07 03:39:05;;;;;;;4.82;1.00;;;10.50;1.00;;;;;;5050750;28;20431;-53
2023/01/07 03:44:15;;;;;;;4.50;0.90;;;10.40;1.00;;;;;;5035877;28;20396;-53
2023/01/07 03:46:40;;;;;;;4.30;0.80;;;10.30;1.00;;;;;;5050217;28;20734;-53
2023/01/07 03:49:06;;;;;;;4.63;1.00;;;10.30;99.90;;;;;;5050681;28;20397;-54
2023/01/07 03:51:32;;;;;;;4.57;0.93;;;10.30;99.90;;;;;;5050334;28;20472;-53
2023/01/07 03:53:57;;;;;;;4.40;0.90;;;10.40;99.90;;;;;;5050560;28;20393;-53
2023/01/07 03:56:23;;;;;;;4.53;0.80;;;10.30;99.90;;;;;;5049214;28;20389;-53
2023/01/07 03:58:48;;;;;;;4.80;0.90;;;10.30;99.90;;;;;;5050933;28;20421;-53
2023/01/07 04:01:14;;;;;;;4.60;0.80;;;10.30;99.90;;;;;;5048770;28;20462;-53
2023/01/07 04:03:39;;;;;;;5.40;1.02;;;10.40;99.90;;;;;;5049908;28;20369;-53
2023/01/07 04:06:05;;;;;;;4.40;0.70;;;10.50;99.90;;;;;;5049779;28;20397;-53
2023/01/07 04:08:31;;;;;;;4.57;0.73;;;10.40;99.90;;;;;;5049849;28;20409;-53
2023/01/07 04:10:56;;;;;;;5.18;0.90;;;10.40;99.90;;;;;;5050448;28;20417;-53
2023/01/07 04:13:22;;;;;;;5.00;0.90;;;10.40;99.90;;;;;;5049702;28;20422;-53
2023/01/07 04:15:47;;;;;;;4.43;0.90;;;10.30;99.90;;;;;;5050205;28;20867;-54
2023/01/07 04:18:13;;;;;;;4.20;0.70;;;10.20;99.90;;;;;;5049937;28;20460;-53
2023/01/07 04:20:38;;;;;;;4.60;0.80;;;10.30;99.90;;;;;;5049620;28;20377;-53
2023/01/07 04:23:04;;;;;;;4.32;0.90;;;10.40;99.90;;;;;;5050193;28;20799;-53
2023/01/07 04:25:31;;;;;;;5.10;1.00;;;10.40;99.90;;;;;;5049863;28;20369;-53
2023/01/07 04:27:56;;;;;;;4.30;0.90;;;10.40;99.90;;;;;;5049789;28;20416;-53
2023/01/07 04:30:22;;;;;;;5.53;1.00;;;10.50;99.90;;;;;;5049120;28;20735;-54
2023/01/07 04:32:47;;;;;;;4.50;0.70;;;10.50;99.90;;;;;;5049787;28;20381;-53
2023/01/07 04:35:13;;;;;;;4.22;0.70;;;10.60;99.90;;;;;;5049746;28;20946;-53
2023/01/07 04:37:38;;;;;;;4.60;1.13;;;10.60;99.90;;;;;;5048237;28;20392;-53
2023/01/07 04:40:05;;;;;;;4.40;0.83;;;10.70;99.90;;;;;;5048732;28;20382;-53
2023/01/07 04:42:30;;;;;;;4.68;0.90;;;10.70;99.90;;;;;;5049388;28;20464;-53
2023/01/07 04:44:56;;;;;;;4.78;1.00;;;10.50;99.90;;;;;;5049706;28;20685;-53
2023/01/07 04:47:21;;;;;;;4.70;0.90;;;10.60;99.90;;;;;;5048666;28;20417;-53
2023/01/07 04:49:47;;;;;;;4.80;0.90;;;10.60;99.90;;;;;;5049895;28;20389;-53
2023/01/07 04:52:12;;;;;;;5.10;1.10;;;10.50;99.90;;;;;;5049713;28;20462;-53
2023/01/07 04:54:38;;;;;;;4.70;1.07;;;10.50;99.90;;;;;;5049111;28;20862;-52
2023/01/07 04:57:04;;;;;;;4.63;0.90;;;10.60;99.90;;;;;;5049751;28;20469;-53
2023/01/07 04:59:29;;;;;;;4.90;0.80;;;10.70;99.90;;;;;;5047542;28;20394;-53
2023/01/07 05:01:55;;;;;;;4.70;1.00;;;10.60;99.90;;;;;;5049365;28;20431;-53
2023/01/07 05:04:20;;;;;;;4.43;0.80;;;10.60;99.90;;;;;;5049241;28;20499;-56
2023/01/07 05:06:46;;;;;;;5.20;1.03;;;10.60;99.90;;;;;;5048461;28;20390;-54
2023/01/07 05:09:12;;;;;;;4.93;1.10;;;10.70;99.90;;;;;;5053936;28;20417;-53
2023/01/07 05:11:37;;;;;;;5.30;1.20;;;10.70;99.90;;;;;;5052895;28;20393;-53
2023/01/07 05:14:04;;;;;;;5.70;1.50;;;10.70;99.90;;;;;;5053787;28;20838;-53
2023/01/07 05:16:30;;;;;;;5.63;1.50;;;10.70;99.90;;;;;;5052916;28;20391;-53
2023/01/07 05:18:55;;;;;;;5.00;1.45;;;10.60;99.90;;;;;;5053703;28;20381;-53
2023/01/07 05:21:21;;;;;;;5.17;1.30;;;10.70;99.90;;;;;;5053663;28;20396;-57
2023/01/07 05:23:47;;;;;;;5.10;1.17;;;10.60;99.90;;;;;;5053267;28;20542;-53
2023/01/07 05:26:12;;;;;;;5.20;1.17;;;10.60;99.90;;;;;;5053851;28;20389;-53
2023/01/07 05:28:38;;;;;;;5.10;1.30;;;10.60;99.90;;;;;;5053012;28;20415;-53
2023/01/07 05:31:04;;;;;;;5.50;1.25;;;10.60;99.90;;;;;;5053347;28;20481;-54
2023/01/07 05:33:29;;;;;;;5.70;1.43;;;10.50;99.90;;;;;;5052860;28;20381;-53
2023/01/07 05:35:55;;;;;;;5.38;1.70;;;10.50;99.90;;;;;;5053721;28;20400;-55
2023/01/07 05:38:20;;;;;;;6.17;1.70;;;10.50;99.90;;;;;;5051741;28;20476;-58
2023/01/07 05:40:48;;;;;;;5.40;1.40;;;10.60;99.90;;;;;;5052690;28;20476;-54
2023/01/07 05:43:14;;;;;;;5.30;1.40;;;10.60;99.90;;;;;;5052852;28;20374;-54
2023/01/07 05:45:42;;;;;;;5.60;1.70;;;10.50;99.90;;;;;;5052644;28;20446;-53
2023/01/07 05:48:08;;;;;;;5.25;1.35;;;10.70;99.90;;;;;;5052887;28;20449;-53
2023/01/07 05:50:33;;;;;;;6.90;1.70;;;10.60;99.90;;;;;;5052357;28;20417;-54
2023/01/07 05:52:59;;;;;;;6.90;2.13;;;10.50;99.90;;;;;;5053400;28;20892;-53
2023/01/07 05:55:24;;;;;;;6.13;1.95;;;10.40;99.90;;;;;;5051168;28;20425;-54
2023/01/07 05:57:50;;;;;;;7.00;2.20;;;10.30;99.90;;;;;;5053648;28;20389;-54
2023/01/07 06:00:16;;;;;;;7.20;2.50;;;10.30;99.90;;;;;;5052944;28;20443;-54
2023/01/07 06:02:41;;;;;;;7.18;2.58;;;10.30;99.90;;;;;;5052142;28;20839;-54
2023/01/07 06:05:07;;;;;;;6.97;2.70;;;10.40;99.90;;;;;;5052597;28;20472;-54
2023/01/07 06:07:33;;;;;;;7.60;3.00;;;10.40;99.90;;;;;;5051675;28;20890;-55
2023/01/07 06:09:59;;;;;;;7.10;2.95;;;10.20;99.90;;;;;;5053000;28;20403;-54
2023/01/07 06:12:24;;;;;;;7.97;2.97;;;10.20;1.00;;;;;;5052212;28;20877;-54
2023/01/07 06:14:50;;;;;;;8.20;3.00;;;10.30;1.00;;;;;;5052562;28;20393;-54
2023/01/07 06:17:15;;;;;;;7.50;2.90;;;10.30;1.00;;;;;;5052514;28;20435;-54
2023/01/07 06:19:41;;;;;;;6.80;2.80;;;10.20;1.00;;;;;;5050803;28;20456;-54
2023/01/07 06:22:07;;;;;;;7.68;3.00;;;10.10;1.00;;;;;;5052641;28;20867;-54
2023/01/07 06:24:32;;;;;;;8.03;3.07;;;10.20;99.90;;;;;;5051550;28;20389;-54
2023/01/07 06:26:58;;;;;;;6.80;2.75;;;10.20;96.00;;;;;;5052428;28;20500;-54
2023/01/07 06:29:23;;;;;;;7.40;3.10;;;10.20;44.10;;;;;;5051636;28;20402;-54
2023/01/07 06:31:49;;;;;;;7.03;2.80;;;10.20;99.90;;;;;;5063305;28;20763;-54
2023/01/07 06:34:14;;;;;;;8.02;3.40;;;10.10;99.90;;;;;;5071877;28;20398;-54
2023/01/07 06:36:40;;;;;;;7.80;2.80;;;10.00;99.90;;;;;;5071835;28;20868;-53
2023/01/07 06:39:06;;;;;;;7.07;3.30;;;10.00;1.00;;;;;;5071570;28;20392;-53
2023/01/07 06:41:31;;;;;;;10.02;3.05;;;9.90;23.70;;;;;;5071089;28;20388;-53
2023/01/07 06:43:57;;;;;;;6.90;2.70;;;10.10;99.90;;;;;;5072524;28;20717;-53
2023/01/07 06:46:22;;;;;;;7.50;2.60;;;10.00;1.00;;;;;;5071584;28;20376;-57
2023/01/07 06:48:48;;;;;;;6.33;2.20;;;10.00;1.00;;;;;;5071696;28;20823;-53
2023/01/07 06:51:13;;;;;;;6.05;2.03;;;10.10;1.00;;;;;;5072260;28;20414;-53
2023/01/07 06:53:39;;;;;;;6.03;1.90;;;10.00;1.00;;;;;;5071187;28;21084;-53
2023/01/07 06:56:05;;;;;;;5.87;1.90;;;10.10;1.00;;;;;;5071835;28;20453;-54
2023/01/07 06:58:30;;;;;;;5.75;1.83;;;10.00;1.00;;;;;;5071548;28;20406;-54
2023/01/07 07:00:56;;;;;;;6.00;1.70;;;10.00;99.90;;;;;;5071604;28;20856;-54
2023/01/07 07:03:22;;;;;;;5.05;1.40;;;10.00;99.90;;;;;;5069519;28;20383;-54
2023/01/07 07:05:47;;;;;;;5.37;1.70;;;10.00;99.90;;;;;;5065389;28;20448;-53
2023/01/07 07:08:13;;;;;;;5.60;1.60;;;10.00;99.90;;;;;;5071679;28;20427;-53
2023/01/07 07:10:38;;;;;;;6.35;1.67;;;10.10;99.90;;;;;;5071062;28;20391;-55
2023/01/07 07:13:04;;;;;;;6.10;1.77;;;10.10;99.90;;;;;;5071694;28;20372;-55
2023/01/07 07:15:30;;;;;;;7.53;1.70;;;10.30;99.90;;;;;;5076592;28;21074;-57
2023/01/07 07:17:55;;;;;;;5.40;1.53;;;10.30;99.90;;;;;;5091974;28;20378;-55
2023/01/07 07:20:21;;;;;;;5.43;1.60;;;10.30;99.90;;;;;;5090774;28;20374;-56
2023/01/07 07:22:47;;;;;;;7.90;1.60;;;10.30;99.90;;;;;;5081570;28;20384;-57
2023/01/07 07:25:14;;;;;;;5.30;1.30;;;10.30;99.90;;;;;;5070978;28;20408;-55
2023/01/07 07:27:40;;;;;;;5.60;1.20;;;10.20;99.90;;;;;;5071012;28;20399;-56
2023/01/07 07:30:07;;;;;;;5.07;1.20;;;10.20;99.90;;;;;;5071275;28;20422;-55
2023/01/07 07:32:33;;;;;;;5.28;1.40;;;10.10;99.90;;;;;;5070760;28;20379;-55
2023/01/07 07:34:58;;;;;;;5.32;1.30;;;9.90;99.90;;;;;;5070659;28;20400;-55
2023/01/07 07:37:24;;;;;;;4.43;0.90;;;9.90;99.90;;;;;;5070997;28;20399;-54
2023/01/07 07:39:49;;;;;;;6.30;1.60;;;9.80;99.90;;;;;;5070941;28;20395;-54
2023/01/07 07:42:15;;;;;;;6.07;1.30;;;9.70;99.90;;;;;;5071111;28;20404;-55
2023/01/07 07:44:41;;;;;;;5.40;1.20;;;9.60;99.90;;;;;;5070450;28;20471;-55
2023/01/07 07:47:06;;;;;;;5.50;1.20;;;9.50;99.90;;;;;;5070304;28;20892;-54
2023/01/07 07:49:32;;;;;;;4.83;1.00;;;9.50;99.90;;;;;;5070692;28;20449;-56
2023/01/07 07:51:57;;;;;;;4.75;1.20;;;9.50;99.90;;;;;;5053009;28;20597;-54
2023/01/07 07:54:23;;;;;;;5.73;1.40;;;9.50;99.90;;;;;;5070150;28;20380;-58
2023/01/07 07:56:48;;;;;;;5.80;1.20;;;9.50;99.90;;;;;;5070668;28;20372;-54
2023/01/07 07:59:14;;;;;;;5.50;1.20;;;9.60;99.90;;;;;;5070858;28;20383;-54
2023/01/07 08:01:40;;;;;;;5.80;1.27;;;9.70;99.90;;;;;;5069990;28;20863;-54
2023/01/07 08:04:05;;;;;;;5.40;1.67;;;9.70;99.90;;;;;;5071125;28;20375;-54
2023/01/07 08:06:33;;;;;;;5.10;1.30;;;9.80;99.90;;;;;;5069757;28;20379;-54
2023/01/07 08:08:58;;;;;;;6.00;1.50;;;10.00;99.90;;;;;;5070559;28;20410;-54
2023/01/07 08:11:24;;;;;;;5.30;1.17;;;9.90;99.90;;;;;;5070088;28;20713;-54
2023/01/07 08:13:50;;;;;;;4.75;1.25;;;9.90;99.90;;;;;;5070675;28;20737;-55
2023/01/07 08:16:15;;;;;;;5.10;1.40;;;9.90;99.90;;;;;;5070138;28;20386;-54
2023/01/07 08:18:41;;;;;;;5.90;1.63;;;9.90;99.90;;;;;;5069593;28;20395;-54
2023/01/07 08:21:07;;;;;;;5.38;1.50;;;9.70;99.90;;;;;;5070046;28;20796;-54
2023/01/07 08:23:33;;;;;;;5.10;1.57;;;9.80;99.90;;;;;;5069688;28;20372;-54
2023/01/07 08:26:01;;;;;;;5.50;1.50;;;9.90;99.90;;;;;;5070639;28;20421;-54
2023/01/07 08:28:27;;;;;;;5.82;1.58;;;10.00;99.90;;;;;;5069407;28;20884;-54
2023/01/07 08:30:53;;;;;;;5.40;1.67;;;10.10;99.90;;;;;;5052205;28;20737;-53
2023/01/07 08:33:18;;;;;;;5.33;1.57;;;10.10;99.90;;;;;;5052862;28;20368;-55
2023/01/07 08:35:44;;;;;;;5.32;1.60;;;10.20;99.90;;;;;;5069726;28;20744;-55
2023/01/07 08:38:10;;;;;;;7.80;1.70;;;10.20;99.90;;;;;;5070472;28;20463;-55
2023/01/07 08:40:36;;;;;;;5.10;1.20;;;10.20;99.90;;;;;;5069981;28;20364;-54
2023/01/07 08:43:05;;;;;;;5.87;1.60;;;10.20;99.90;;;;;;5069102;28;20440;-54
2023/01/07 08:45:31;;;;;;;4.88;1.10;;;10.20;99.90;;;;;;5069451;28;20880;-54
2023/01/07 08:47:57;;;;;;;5.75;1.52;;;10.30;99.90;;;;;;5070581;28;20411;-54
2023/01/07 08:50:28;;;;;;;6.50;2.20;;;10.40;99.90;;;;;;5069800;28;20384;-58
2023/01/07 08:52:54;;;;;;;5.60;1.55;;;10.30;99.90;;;;;;5069760;28;20821;-54
2023/01/07 08:55:20;;;;;;;6.43;1.80;;;10.10;99.90;;;;;;5070294;28;20375;-55
2023/01/07 08:57:46;;;;;;;6.90;2.10;;;10.10;99.90;;;;;;5068808;28;20372;-54
2023/01/07 09:00:13;;;;;;;7.97;1.70;;;10.30;99.90;;;;;;5069731;28;20383;-54
2023/01/07 09:02:39;;;;;;;5.20;1.33;;;10.30;99.90;;;;;;5069214;28;20529;-54
2023/01/07 09:05:05;;;;;;;7.00;1.60;;;10.40;99.90;;;;;;5051664;28;20466;-54
2023/01/07 09:07:30;;;;;;;5.90;1.80;;;10.50;99.90;;;;;;5068752;28;20470;-55
2023/01/07 09:09:56;;;;;;;5.75;1.80;;;10.50;99.90;;;;;;5070670;28;20888;-54
2023/01/07 09:12:22;;;;;;;4.93;1.23;;;10.60;99.90;;;;;;5069329;28;20376;-53
2023/01/07 09:14:47;;;;;;;5.60;1.90;;;10.70;99.00;;;;;;5069430;28;20463;-52
2023/01/07 09:17:13;;;;;;;5.13;1.20;;;10.80;99.90;;;;;;5069794;28;20717;-52
2023/01/07 09:19:38;;;;;;;6.00;1.50;;;10.70;94.60;;;;;;5069089;28;20755;-51
2023/01/07 09:22:04;;;;;;;4.90;1.13;;;10.70;82.70;;;;;;5068512;28;20402;-52
2023/01/07 09:24:29;;;;;;;5.03;1.20;;;10.60;90.80;;;;;;5068858;28;20470;-54
2023/01/07 09:26:55;;;;;;;5.70;1.25;;;10.50;83.10;;;;;;5069556;28;20376;-54
2023/01/07 09:29:21;;;;;;;4.43;0.90;;;10.40;81.90;;;;;;5069571;28;20845;-54
2023/01/07 09:31:46;;;;;;;4.97;1.20;;;10.40;94.30;;;;;;5068641;28;20463;-54
2023/01/07 09:34:12;;;;;;;5.25;0.95;;;10.40;96.70;;;;;;5069384;28;20403;-54
2023/01/07 09:36:37;;;;;;;4.80;1.20;;;10.50;97.00;;;;;;5068935;28;20469;-54
2023/01/07 09:39:03;;;;;;;5.20;1.30;;;10.70;95.20;;;;;;5069349;28;20388;-54
2023/01/07 09:42:03;;;;;;;5.20;1.10;;;10.80;61.40;;;;;;5067868;28;20441;-54
2023/01/07 09:44:41;;;;;;;4.90;1.27;;;10.90;50.60;;;;;;5066855;28;20863;-53
2023/01/07 09:47:08;;;;;;;5.30;1.20;;;10.80;26.60;;;;;;5056319;28;20445;-55
2023/01/07 09:49:34;;;;;;;4.77;0.90;;;10.80;14.30;;;;;;5048830;28;20381;-52
2023/01/07 09:52:16;;;;;;;6.25;1.88;;;11.00;13.20;;;;;;5049314;28;20731;-53
2023/01/07 09:54:46;;;;;;;6.07;1.50;;;11.10;1.00;;;;;;5051350;28;20389;-52
2023/01/07 09:57:16;;;;;;;5.80;1.60;;;11.10;1.00;;;;;;5053017;28;20388;-52
2023/01/07 09:59:42;;;;;;;6.82;2.17;;;11.10;1.00;;;;;;5052306;28;20382;-54
2023/01/07 10:02:25;;;;;;;7.60;3.00;;;11.00;1.00;;;;;;5052534;28;20409;-57
2023/01/07 10:05:33;;;;;;;8.00;3.30;;;10.90;1.00;;;;;;5052811;28;20484;-54
2023/01/07 10:08:22;;;;;;;7.70;3.20;;;10.90;1.00;;;;;;4933279;29;20431;-55
2023/01/07 10:11:09;;;;;;;7.45;2.00;;;11.10;1.00;;;;;;4933098;29;20515;-54
2023/01/07 10:14:01;;;;;;;7.40;2.47;;;11.10;1.00;;;;;;5032946;28;20413;-54
2023/01/07 10:16:58;;;;;;;6.93;2.50;;;11.20;1.00;;;;;;5071567;28;20380;-53
2023/01/07 10:19:31;;;;;;;7.50;2.63;;;11.50;1.00;;;;;;5071884;28;20380;-53
2023/01/07 10:22:09;;;;;;;6.03;1.70;;;12.20;1.00;;;;;;5072910;28;20446;-53
2023/01/07 10:24:44;;;;;;;6.90;1.88;;;12.00;1.00;;;;;;5072086;28;20852;-53
2023/01/07 10:27:13;;;;;;;6.53;1.90;;;12.90;1.00;;;;;;5072701;28;20457;-52
2023/01/07 10:29:45;;;;;;;6.70;2.20;;;;;;;;;;5071747;28;20471;-53
2023/01/07 10:32:16;;;;;;;6.82;2.10;;;15.90;1.00;;;;;;5072136;28;20368;-54
2023/01/07 10:34:44;;;;;;;6.00;1.80;;;16.30;1.00;;;;;;5070832;28;20440;-53
2023/01/07 10:37:18;;;;;;;6.05;1.42;;;16.40;1.00;;;;;;5052044;28;20401;-56
2023/01/07 10:40:10;;;;;;;7.40;1.80;;;16.00;1.00;;;;;;5051609;28;20379;-55
2023/01/07 10:42:51;;;;;;;6.50;1.93;;;15.80;1.00;;;;;;5051652;28;20413;-54
2023/01/07 10:45:17;;;;;;;6.95;2.17;;;15.90;1.00;;;;;;5052096;28;20452;-54
2023/01/07 10:47:45;;;;;;;6.30;2.00;;;15.50;1.00;;;;;;5051289;28;20512;-55
2023/01/07 10:50:29;;;;;;;7.03;2.10;;;15.60;1.00;;;;;;5052033;28;20539;-54
2023/01/07 10:53:17;;;;;;;6.90;1.90;;;15.50;1.00;;;;;;5052053;28;20392;-54
2023/01/07 10:56:12;;;;;;;6.50;1.80;;;14.90;1.00;;;;;;5051285;28;20751;-55
2023/01/07 10:58:44;;;;;;;7.38;1.90;;;14.40;1.00;;;;;;5051471;28;20913;-54
2023/01/07 11:01:36;;;;;;;5.95;1.75;;;14.70;1.00;;;;;;5051776;28;20418;-55
2023/01/07 11:04:03;;;;;;;6.82;2.00;;;15.30;1.00;;;;;;5051891;28;21024;-54
2023/01/07 11:07:03;;;;;;;7.20;1.70;;;15.60;1.00;;;;;;5050692;28;20389;-54
2023/01/07 11:09:37;;;;;;;6.63;2.20;;;16.40;1.00;;;;;;5051060;28;20420;-55
2023/01/07 11:12:30;;;;;;;6.13;1.80;;;16.40;1.00;;;;;;5051365;28;20382;-54
2023/01/07 11:14:59;;;;;;;7.50;2.00;;;16.20;1.00;;;;;;5051551;28;20443;-54
2023/01/07 11:17:33;;;;;;;6.80;2.10;;;16.40;1.00;;;;;;5051157;28;20385;-55
2023/01/07 11:19:59;;;;;;;6.87;2.30;;;16.60;1.00;;;;;;5051545;28;20388;-54
2023/01/07 11:22:24;;;;;;;7.50;2.08;;;16.00;1.00;;;;;;5051274;28;20377;-58
2023/01/07 11:24:51;;;;;;;6.80;2.10;;;15.70;1.00;;;;;;5050352;28;20393;-55
2023/01/07 11:27:18;;;;;;;7.10;2.22;;;16.10;1.00;;;;;;5051351;28;20898;-55
2023/01/07 11:30:06;;;;;;;7.43;1.90;;;16.50;1.00;;;;;;5050428;28;20400;-55
2023/01/07 11:32:39;;;;;;;7.85;2.53;;;16.10;1.00;;;;;;5050422;28;20842;-55
2023/01/07 11:35:12;;;;;;;5.90;1.90;;;15.70;1.00;;;;;;5053579;28;20393;-55
2023/01/07 11:37:40;;;;;;;6.25;2.08;;;15.20;1.00;;;;;;5070439;28;20865;-54
2023/01/07 11:40:12;;;;;;;6.43;2.00;;;15.10;1.00;;;;;;5071060;28;20380;-54
2023/01/07 11:42:57;;;;;;;6.32;1.73;;;14.70;1.00;;;;;;5070628;28;20867;-52
2023/01/07 11:45:44;;;;;;;6.50;2.20;;;14.20;1.00;;;;;;5070982;28;20412;-51
2023/01/07 11:48:33;;;;;;;6.88;2.20;;;15.30;1.00;;;;;;5071375;28;20477;-52
2023/01/07 11:51:00;;;;;;;6.82;1.88;;;14.40;1.00;;;;;;5070742;28;20394;-52
2023/01/07 11:53:35;;;;;;;7.68;2.28;;;14.20;1.00;;;;;;5070186;28;20449;-52
2023/01/07 11:56:07;;;;;;;7.10;2.10;;;14.10;1.00;;;;;;5070359;28;20536;-52
2023/01/07 11:58:37;;;;;;;6.32;1.80;;;14.30;1.00;;;;;;5070099;28;20871;-52
2023/01/07 12:01:11;;;;;;;6.82;2.13;;;14.30;1.00;;;;;;5070184;28;20379;-52
2023/01/07 12:03:39;;;;;;;6.72;1.75;;;14.40;1.00;;;;;;5069370;28;20884;-52
2023/01/07 12:06:17;;;;;;;7.20;2.20;;;14.00;1.00;;;;;;5070301;28;20388;-52
2023/01/07 12:09:10;;;;;;;6.32;1.90;;;14.00;1.00;;;;;;5068694;28;20957;-52
2023/01/07 12:11:39;;;;;;;7.13;2.28;;;14.20;1.00;;;;;;5054789;28;20403;-52
2023/01/07 12:14:23;;;;;;;7.47;2.10;;;14.50;1.00;;;;;;5070045;28;20397;-52
2023/01/07 12:16:50;;;;;;;6.65;1.90;;;14.50;1.00;;;;;;5068783;28;20474;-54
2023/01/07 12:19:30;;;;;;;6.80;2.00;;;14.50;1.00;;;;;;5070513;28;20380;-54
2023/01/07 12:22:14;;;;;;;7.18;2.33;;;14.40;1.00;;;;;;5070717;28;20422;-54
2023/01/07 12:24:55;;;;;;;6.85;2.30;;;14.30;1.00;;;;;;5069666;28;20398;-54
2023/01/07 12:27:35;;;;;;;6.57;2.03;;;14.30;1.00;;;;;;5069684;28;20450;-54
2023/01/07 12:30:16;;;;;;;6.28;2.13;;;14.40;1.00;;;;;;5070102;28;20806;-54
2023/01/07 12:32:57;;;;;;;8.18;2.40;;;14.40;1.00;;;;;;5069702;28;20474;-54
2023/01/07 12:35:31;;;;;;;7.72;2.50;;;14.40;1.00;;;;;;5069469;28;20463;-55
2023/01/07 12:38:15;;;;;;;7.20;2.50;;;14.30;1.00;;;;;;5069903;28;20869;-54
2023/01/07 12:40:52;;;;;;;6.50;2.40;;;14.50;1.00;;;;;;5069501;28;20420;-51
2023/01/07 12:43:39;;;;;;;6.60;2.28;;;14.30;1.00;;;;;;5051759;28;20437;-52
2023/01/07 12:46:11;;;;;;;7.40;2.50;;;14.20;1.00;;;;;;5069602;28;21075;-52
2023/01/07 12:49:06;;;;;;;10.23;2.83;;;14.30;1.00;;;;;;5068998;28;20459;-53
2023/01/07 12:51:45;;;;;;;8.50;2.70;;;14.40;1.00;;;;;;5068832;28;20395;-53
2023/01/07 12:54:14;;;;;;;6.90;2.30;;;14.30;1.00;;;;;;5070349;28;20374;-53
2023/01/07 12:56:50;;;;;;;8.40;3.05;;;14.20;1.00;;;;;;5069211;28;20421;-53
2023/01/07 12:59:43;;;;;;;7.05;2.22;;;14.10;1.00;;;;;;5069886;28;20745;-53
2023/01/07 13:02:47;;;;;;;7.75;2.70;;;14.00;1.00;;;;;;5069699;28;20387;-53
2023/01/07 13:05:18;;;;;;;7.43;2.30;;;14.10;1.00;;;;;;5069681;28;20414;-53
2023/01/07 13:08:20;;;;;;;7.05;2.60;;;14.20;1.00;;;;;;5068963;28;20903;-53
2023/01/07 13:10:56;;;;;;;6.40;2.40;;;14.20;1.00;;;;;;5027328;28;20396;-53
2023/01/07 13:13:46;;;;;;;7.25;2.80;;;14.10;1.00;;;;;;5070047;28;20414;-52
2023/01/07 13:16:12;;;;;;;8.23;2.97;;;13.90;1.00;;;;;;5069779;28;20375;-52